sensor_id;sensor_type;location;lat;lon;timestamp;temperature;humidity
47514;DHT22;33951;51.988;5.910;2022-07-01T05:02:24;13.90;99.90
47514;DHT22;33951;51.988;5.910;2022-07-01T05:05:38;14.00;99.90
47514;DHT22;33951;51.988;5.910;2022-07-01T05:15:06;13.90;99.90
47514;DHT22;33951;51.988;5.910;2022-07-01T05:17:33;14.00;99.90
47514;DHT22;33951;51.988;5.910;2022-07-01T05:20:17;14.00;99.90
47514;DHT22;33951;51.988;5.910;2022-07-01T05:23:01;14.00;99.90
47514;DHT22;33951;51.988;5.910;2022-07-01T05:25:27;14.00;99.90
47514;DHT22;33951;51.988;5.910;2022-07-01T05:27:53;14.00;99.90
47514;DHT22;33951;51.988;5.910;2022-07-01T05:30:20;14.20;99.90
47514;DHT22;33951;51.988;5.910;2022-07-01T05:32:46;14.20;99.90
47514;DHT22;33951;51.988;5.910;2022-07-01T05:35:11;14.20;99.90
47514;DHT22;33951;51.988;5.910;2022-07-01T05:37:40;14.20;99.90
47514;DHT22;33951;51.988;5.910;2022-07-01T05:40:06;14.30;99.90
47514;DHT22;33951;51.988;5.910;2022-07-01T05:42:32;14.30;99.90
47514;DHT22;33951;51.988;5.910;2022-07-01T05:44:57;14.40;99.90
47514;DHT22;33951;51.988;5.910;2022-07-01T05:47:23;14.50;99.90
47514;DHT22;33951;51.988;5.910;2022-07-01T05:49:49;14.50;99.90
47514;DHT22;33951;51.988;5.910;2022-07-01T05:52:20;14.50;99.90
47514;DHT22;33951;51.988;5.910;2022-07-01T05:54:49;14.50;99.90
47514;DHT22;33951;51.988;5.910;2022-07-01T05:57:17;14.50;99.90
47514;DHT22;33951;51.988;5.910;2022-07-01T05:59:43;14.50;99.90
47514;DHT22;33951;51.988;5.910;2022-07-01T06:02:12;14.50;99.90
47514;DHT22;33951;51.988;5.910;2022-07-01T06:04:38;14.40;99.90
47514;DHT22;33951;51.988;5.910;2022-07-01T06:07:06;14.50;99.90
47514;DHT22;33951;51.988;5.910;2022-07-01T06:09:44;14.40;99.90
47514;DHT22;33951;51.988;5.910;2022-07-01T06:12:12;14.40;99.90
47514;DHT22;33951;51.988;5.910;2022-07-01T06:14:41;14.40;99.90
47514;DHT22;33951;51.988;5.910;2022-07-01T06:17:09;14.30;99.90
47514;DHT22;33951;51.988;5.910;2022-07-01T06:19:35;14.40;99.90
47514;DHT22;33951;51.988;5.910;2022-07-01T06:22:06;14.50;99.90
47514;DHT22;33951;51.988;5.910;2022-07-01T06:24:59;14.60;99.90
47514;DHT22;33951;51.988;5.910;2022-07-01T06:27:24;14.80;99.90
47514;DHT22;33951;51.988;5.910;2022-07-01T06:29:58;14.80;99.90
47514;DHT22;33951;51.988;5.910;2022-07-01T06:32:23;14.80;99.90
47514;DHT22;33951;51.988;5.910;2022-07-01T06:34:51;14.90;99.90
47514;DHT22;33951;51.988;5.910;2022-07-01T06:37:17;15.00;99.90
47514;DHT22;33951;51.988;5.910;2022-07-01T06:39:45;14.80;99.90
47514;DHT22;33951;51.988;5.910;2022-07-01T06:42:16;14.80;99.90
47514;DHT22;33951;51.988;5.910;2022-07-01T06:44:42;14.70;99.90
47514;DHT22;33951;51.988;5.910;2022-07-01T06:47:08;14.70;99.90
47514;DHT22;33951;51.988;5.910;2022-07-01T06:49:39;14.50;99.90
47514;DHT22;33951;51.988;5.910;2022-07-01T06:52:05;14.50;99.90
47514;DHT22;33951;51.988;5.910;2022-07-01T06:54:33;14.80;99.90
47514;DHT22;33951;51.988;5.910;2022-07-01T06:57:01;14.80;99.90
47514;DHT22;33951;51.988;5.910;2022-07-01T06:59:29;14.80;99.90
47514;DHT22;33951;51.988;5.910;2022-07-01T07:02:03;14.80;99.90
47514;DHT22;33951;51.988;5.910;2022-07-01T07:04:33;15.00;99.90
47514;DHT22;33951;51.988;5.910;2022-07-01T07:06:59;14.90;99.90
47514;DHT22;33951;51.988;5.910;2022-07-01T07:09:27;14.90;99.90
47514;DHT22;33951;51.988;5.910;2022-07-01T07:11:53;14.90;99.90
47514;DHT22;33951;51.988;5.910;2022-07-01T07:14:22;15.00;99.90
47514;DHT22;33951;51.988;5.910;2022-07-01T07:16:50;14.90;99.90
47514;DHT22;33951;51.988;5.910;2022-07-01T07:19:23;14.80;99.90
47514;DHT22;33951;51.988;5.910;2022-07-01T07:21:59;14.80;99.90
47514;DHT22;33951;51.988;5.910;2022-07-01T07:24:25;14.90;99.90
47514;DHT22;33951;51.988;5.910;2022-07-01T07:26:50;14.80;99.90
47514;DHT22;33951;51.988;5.910;2022-07-01T07:29:16;14.90;99.90
47514;DHT22;33951;51.988;5.910;2022-07-01T07:31:44;15.10;99.90
47514;DHT22;33951;51.988;5.910;2022-07-01T07:34:12;15.20;99.90
47514;DHT22;33951;51.988;5.910;2022-07-01T07:36:40;15.20;99.90
47514;DHT22;33951;51.988;5.910;2022-07-01T07:42:21;15.30;99.90
47514;DHT22;33951;51.988;5.910;2022-07-01T07:44:47;15.30;99.90
47514;DHT22;33951;51.988;5.910;2022-07-01T07:47:21;15.30;99.90
47514;DHT22;33951;51.988;5.910;2022-07-01T07:49:47;15.40;99.90
47514;DHT22;33951;51.988;5.910;2022-07-01T07:52:18;15.50;99.90
47514;DHT22;33951;51.988;5.910;2022-07-01T07:54:49;15.50;99.90
47514;DHT22;33951;51.988;5.910;2022-07-01T08:01:05;15.60;99.90
47514;DHT22;33951;51.988;5.910;2022-07-01T08:03:37;15.60;99.90
47514;DHT22;33951;51.988;5.910;2022-07-01T08:11:19;15.60;99.90
47514;DHT22;33951;51.988;5.910;2022-07-01T08:13:51;15.70;99.90
47514;DHT22;33951;51.988;5.910;2022-07-01T08:16:19;15.80;99.90
47514;DHT22;33951;51.988;5.910;2022-07-01T08:22:02;16.10;99.90
47514;DHT22;33951;51.988;5.910;2022-07-01T08:24:56;16.30;99.90
47514;DHT22;33951;51.988;5.910;2022-07-01T08:27:34;16.40;99.90
47514;DHT22;33951;51.988;5.910;2022-07-01T08:30:11;16.30;99.90
47514;DHT22;33951;51.988;5.910;2022-07-01T08:32:47;16.40;99.90
47514;DHT22;33951;51.988;5.910;2022-07-01T08:35:18;16.40;99.90
47514;DHT22;33951;51.988;5.910;2022-07-01T08:37:49;16.50;99.90
47514;DHT22;33951;51.988;5.910;2022-07-01T08:40:36;16.60;99.90
47514;DHT22;33951;51.988;5.910;2022-07-01T08:43:12;16.70;99.90
47514;DHT22;33951;51.988;5.910;2022-07-01T08:46:11;16.70;99.90
47514;DHT22;33951;51.988;5.910;2022-07-01T08:49:12;16.80;99.90
47514;DHT22;33951;51.988;5.910;2022-07-01T08:52:27;16.80;99.90
47514;DHT22;33951;51.988;5.910;2022-07-01T08:58:47;16.80;99.90
47514;DHT22;33951;51.988;5.910;2022-07-01T09:02:10;17.00;99.90
47514;DHT22;33951;51.988;5.910;2022-07-01T09:05:27;17.20;99.90
47514;DHT22;33951;51.988;5.910;2022-07-01T09:08:22;17.30;99.90
47514;DHT22;33951;51.988;5.910;2022-07-01T09:14:52;17.50;99.90
47514;DHT22;33951;51.988;5.910;2022-07-01T09:18:26;17.30;99.90
47514;DHT22;33951;51.988;5.910;2022-07-01T09:28:21;17.20;99.90
47514;DHT22;33951;51.988;5.910;2022-07-01T09:30:55;17.30;99.90
47514;DHT22;33951;51.988;5.910;2022-07-01T09:33:36;17.40;99.90
47514;DHT22;33951;51.988;5.910;2022-07-01T09:39:07;17.60;99.90
47514;DHT22;33951;51.988;5.910;2022-07-01T09:45:17;17.70;99.90
47514;DHT22;33951;51.988;5.910;2022-07-01T09:51:15;17.80;99.90
47514;DHT22;33951;51.988;5.910;2022-07-01T09:53:51;17.80;99.90
47514;DHT22;33951;51.988;5.910;2022-07-01T09:56:27;17.90;99.90
47514;DHT22;33951;51.988;5.910;2022-07-01T09:58:52;18.20;99.90
47514;DHT22;33951;51.988;5.910;2022-07-01T10:01:18;18.40;99.90
47514;DHT22;33951;51.988;5.910;2022-07-01T10:03:45;18.60;99.90
47514;DHT22;33951;51.988;5.910;2022-07-01T10:06:39;18.70;99.90
47514;DHT22;33951;51.988;5.910;2022-07-01T10:09:21;18.70;99.90
47514;DHT22;33951;51.988;5.910;2022-07-01T10:12:28;18.50;99.90
47514;DHT22;33951;51.988;5.910;2022-07-01T10:14:59;18.60;99.90
47514;DHT22;33951;51.988;5.910;2022-07-01T10:17:31;18.90;99.90
47514;DHT22;33951;51.988;5.910;2022-07-01T10:20:09;18.80;99.90
47514;DHT22;33951;51.988;5.910;2022-07-01T10:22:37;18.70;99.90
47514;DHT22;33951;51.988;5.910;2022-07-01T10:31:07;19.00;99.90
47514;DHT22;33951;51.988;5.910;2022-07-01T10:37:20;18.60;99.90
47514;DHT22;33951;51.988;5.910;2022-07-01T10:40:12;18.80;99.90
47514;DHT22;33951;51.988;5.910;2022-07-01T10:46:09;19.10;99.90
47514;DHT22;33951;51.988;5.910;2022-07-01T10:49:00;19.20;99.90
47514;DHT22;33951;51.988;5.910;2022-07-01T10:52:18;19.20;99.90
47514;DHT22;33951;51.988;5.910;2022-07-01T10:59:21;19.10;99.90
47514;DHT22;33951;51.988;5.910;2022-07-01T11:05:21;19.70;99.90
47514;DHT22;33951;51.988;5.910;2022-07-01T11:07:58;19.50;99.90
47514;DHT22;33951;51.988;5.910;2022-07-01T11:13:35;19.80;99.90
47514;DHT22;33951;51.988;5.910;2022-07-01T11:55:00;21.30;99.90
47514;DHT22;33951;51.988;5.910;2022-07-01T11:57:29;21.40;99.90
47514;DHT22;33951;51.988;5.910;2022-07-01T12:00:20;21.50;99.90
47514;DHT22;33951;51.988;5.910;2022-07-01T12:02:59;21.30;99.90
47514;DHT22;33951;51.988;5.910;2022-07-01T12:05:37;21.20;99.90
47514;DHT22;33951;51.988;5.910;2022-07-01T13:07:26;23.20;97.90
47514;DHT22;33951;51.988;5.910;2022-07-01T13:10:00;23.30;96.80
47514;DHT22;33951;51.988;5.910;2022-07-01T13:12:37;23.20;96.80
47514;DHT22;33951;51.988;5.910;2022-07-01T13:15:15;23.10;96.40
47514;DHT22;33951;51.988;5.910;2022-07-01T13:17:44;23.00;97.30
47514;DHT22;33951;51.988;5.910;2022-07-01T13:20:13;23.10;98.60
47514;DHT22;33951;51.988;5.910;2022-07-01T14:29:48;22.40;97.90
47514;DHT22;33951;51.988;5.910;2022-07-01T14:32:18;22.10;99.10
47514;DHT22;33951;51.988;5.910;2022-07-01T14:38:33;22.40;98.60
47514;DHT22;33951;51.988;5.910;2022-07-01T14:41:01;22.40;98.00
47514;DHT22;33951;51.988;5.910;2022-07-01T14:43:29;22.10;98.00
47514;DHT22;33951;51.988;5.910;2022-07-01T14:45:59;22.00;97.70
47514;DHT22;33951;51.988;5.910;2022-07-01T14:48:36;21.80;96.70
47514;DHT22;33951;51.988;5.910;2022-07-01T14:51:18;21.80;97.10
47514;DHT22;33951;51.988;5.910;2022-07-01T14:53:47;21.70;97.40
47514;DHT22;33951;51.988;5.910;2022-07-01T14:56:42;21.70;98.00
47514;DHT22;33951;51.988;5.910;2022-07-01T14:59:12;21.70;97.60
47514;DHT22;33951;51.988;5.910;2022-07-01T15:01:48;21.60;97.80
47514;DHT22;33951;51.988;5.910;2022-07-01T15:04:19;21.70;98.20
47514;DHT22;33951;51.988;5.910;2022-07-01T15:06:45;21.80;97.90
47514;DHT22;33951;51.988;5.910;2022-07-01T15:09:19;21.80;98.00
47514;DHT22;33951;51.988;5.910;2022-07-01T15:11:52;21.60;98.20
47514;DHT22;33951;51.988;5.910;2022-07-01T15:14:20;21.70;98.90
47514;DHT22;33951;51.988;5.910;2022-07-01T15:16:49;21.50;98.90
47514;DHT22;33951;51.988;5.910;2022-07-01T15:19:21;21.30;99.40
47514;DHT22;33951;51.988;5.910;2022-07-01T15:21:46;21.10;99.60
47514;DHT22;33951;51.988;5.910;2022-07-01T15:24:17;20.80;99.90
47514;DHT22;33951;51.988;5.910;2022-07-01T15:26:45;20.50;99.90
47514;DHT22;33951;51.988;5.910;2022-07-01T15:29:27;20.30;99.90
47514;DHT22;33951;51.988;5.910;2022-07-01T15:31:54;20.30;99.90
47514;DHT22;33951;51.988;5.910;2022-07-01T15:34:24;20.30;99.90
47514;DHT22;33951;51.988;5.910;2022-07-01T15:36:49;20.10;99.90
47514;DHT22;33951;51.988;5.910;2022-07-01T15:39:15;20.10;99.90
47514;DHT22;33951;51.988;5.910;2022-07-01T15:41:46;20.00;99.90
47514;DHT22;33951;51.988;5.910;2022-07-01T15:44:17;20.00;99.90
47514;DHT22;33951;51.988;5.910;2022-07-01T15:46:43;20.00;99.90
47514;DHT22;33951;51.988;5.910;2022-07-01T15:49:09;20.10;99.90
47514;DHT22;33951;51.988;5.910;2022-07-01T15:51:39;20.10;99.90
47514;DHT22;33951;51.988;5.910;2022-07-01T15:54:12;20.00;99.90
47514;DHT22;33951;51.988;5.910;2022-07-01T15:56:43;19.80;99.90
47514;DHT22;33951;51.988;5.910;2022-07-01T15:59:24;19.80;99.90
47514;DHT22;33951;51.988;5.910;2022-07-01T16:01:52;19.70;99.90
47514;DHT22;33951;51.988;5.910;2022-07-01T16:04:47;19.60;99.90
47514;DHT22;33951;51.988;5.910;2022-07-01T16:07:32;19.70;99.90
47514;DHT22;33951;51.988;5.910;2022-07-01T16:10:10;19.70;99.90
47514;DHT22;33951;51.988;5.910;2022-07-01T16:12:42;19.70;99.90
47514;DHT22;33951;51.988;5.910;2022-07-01T16:15:16;19.80;99.90
47514;DHT22;33951;51.988;5.910;2022-07-01T16:17:58;19.90;99.90
47514;DHT22;33951;51.988;5.910;2022-07-01T16:20:35;19.70;99.90
47514;DHT22;33951;51.988;5.910;2022-07-01T16:23:08;19.70;99.90
47514;DHT22;33951;51.988;5.910;2022-07-01T16:25:42;19.70;99.90
47514;DHT22;33951;51.988;5.910;2022-07-01T16:28:12;19.80;99.90
47514;DHT22;33951;51.988;5.910;2022-07-01T16:30:42;19.80;99.90
47514;DHT22;33951;51.988;5.910;2022-07-01T16:33:26;19.90;99.90
47514;DHT22;33951;51.988;5.910;2022-07-01T16:36:17;19.70;99.90
47514;DHT22;33951;51.988;5.910;2022-07-01T16:39:02;19.90;99.90
47514;DHT22;33951;51.988;5.910;2022-07-01T16:44:08;20.30;99.90
47514;DHT22;33951;51.988;5.910;2022-07-01T16:46:37;20.40;99.90
47514;DHT22;33951;51.988;5.910;2022-07-01T16:49:20;20.60;99.90
47514;DHT22;33951;51.988;5.910;2022-07-01T16:52:06;20.30;99.90
47514;DHT22;33951;51.988;5.910;2022-07-01T16:54:33;20.10;99.90
47514;DHT22;33951;51.988;5.910;2022-07-01T16:57:03;20.00;99.90
47514;DHT22;33951;51.988;5.910;2022-07-01T16:59:32;19.90;99.90
47514;DHT22;33951;51.988;5.910;2022-07-01T17:02:06;19.90;99.90
47514;DHT22;33951;51.988;5.910;2022-07-01T17:04:31;19.80;99.90
47514;DHT22;33951;51.988;5.910;2022-07-01T17:06:58;19.80;99.90
47514;DHT22;33951;51.988;5.910;2022-07-01T17:09:24;20.00;99.90
47514;DHT22;33951;51.988;5.910;2022-07-01T17:11:52;20.00;99.90
47514;DHT22;33951;51.988;5.910;2022-07-01T17:14:18;20.00;99.90
47514;DHT22;33951;51.988;5.910;2022-07-01T17:16:46;20.20;99.90
47514;DHT22;33951;51.988;5.910;2022-07-01T17:19:13;20.20;99.90
47514;DHT22;33951;51.988;5.910;2022-07-01T17:21:45;20.40;99.90
47514;DHT22;33951;51.988;5.910;2022-07-01T17:24:14;20.60;99.90
47514;DHT22;33951;51.988;5.910;2022-07-01T17:27:20;20.90;99.90
47514;DHT22;33951;51.988;5.910;2022-07-01T17:30:05;20.80;99.90
47514;DHT22;33951;51.988;5.910;2022-07-01T17:32:48;20.90;99.90
47514;DHT22;33951;51.988;5.910;2022-07-01T17:35:17;20.90;99.90
47514;DHT22;33951;51.988;5.910;2022-07-01T17:37:46;20.80;99.90
47514;DHT22;33951;51.988;5.910;2022-07-01T17:40:21;20.90;99.90
47514;DHT22;33951;51.988;5.910;2022-07-01T17:42:50;21.30;99.90
47514;DHT22;33951;51.988;5.910;2022-07-01T17:45:16;21.70;99.90
47514;DHT22;33951;51.988;5.910;2022-07-01T17:48:11;21.80;99.90
47514;DHT22;33951;51.988;5.910;2022-07-01T17:50:53;21.70;99.90
47514;DHT22;33951;51.988;5.910;2022-07-01T17:53:42;21.60;99.90
47514;DHT22;33951;51.988;5.910;2022-07-01T17:59:41;21.00;99.90
47514;DHT22;33951;51.988;5.910;2022-07-01T18:02:26;20.80;99.90
47514;DHT22;33951;51.988;5.910;2022-07-01T18:04:52;20.90;99.90
47514;DHT22;33951;51.988;5.910;2022-07-01T18:07:21;21.00;99.90
47514;DHT22;33951;51.988;5.910;2022-07-01T18:09:48;20.70;99.90
47514;DHT22;33951;51.988;5.910;2022-07-01T18:15:13;20.20;99.90
47514;DHT22;33951;51.988;5.910;2022-07-01T18:20:34;20.00;99.90
47514;DHT22;33951;51.988;5.910;2022-07-01T18:23:07;19.80;99.90
47514;DHT22;33951;51.988;5.910;2022-07-01T18:25:35;19.60;99.90
47514;DHT22;33951;51.988;5.910;2022-07-01T18:28:03;19.50;99.90
47514;DHT22;33951;51.988;5.910;2022-07-01T18:30:32;19.50;99.90
47514;DHT22;33951;51.988;5.910;2022-07-01T18:33:03;19.60;99.90
47514;DHT22;33951;51.988;5.910;2022-07-01T18:35:38;19.70;99.90
47514;DHT22;33951;51.988;5.910;2022-07-01T18:38:06;19.60;99.90
47514;DHT22;33951;51.988;5.910;2022-07-01T18:40:32;19.50;99.90
47514;DHT22;33951;51.988;5.910;2022-07-01T18:43:05;19.50;99.90
47514;DHT22;33951;51.988;5.910;2022-07-01T18:45:31;19.40;99.90
47514;DHT22;33951;51.988;5.910;2022-07-01T18:48:04;19.20;99.90
47514;DHT22;33951;51.988;5.910;2022-07-01T18:50:33;19.10;99.90
47514;DHT22;33951;51.988;5.910;2022-07-01T18:53:04;18.90;99.90
47514;DHT22;33951;51.988;5.910;2022-07-01T18:55:35;19.10;99.90
47514;DHT22;33951;51.988;5.910;2022-07-01T18:58:04;19.10;99.90
47514;DHT22;33951;51.988;5.910;2022-07-01T19:00:40;19.00;99.90
47514;DHT22;33951;51.988;5.910;2022-07-01T19:03:16;18.90;99.90
47514;DHT22;33951;51.988;5.910;2022-07-01T19:05:47;18.90;99.90
47514;DHT22;33951;51.988;5.910;2022-07-01T19:08:18;18.90;99.90
47514;DHT22;33951;51.988;5.910;2022-07-01T19:10:47;19.00;99.90
47514;DHT22;33951;51.988;5.910;2022-07-01T19:13:12;18.90;99.90
47514;DHT22;33951;51.988;5.910;2022-07-01T19:15:46;18.90;99.90
47514;DHT22;33951;51.988;5.910;2022-07-01T19:18:14;19.10;99.90
47514;DHT22;33951;51.988;5.910;2022-07-01T19:20:40;19.00;99.90
47514;DHT22;33951;51.988;5.910;2022-07-01T19:23:07;18.90;99.90
47514;DHT22;33951;51.988;5.910;2022-07-01T19:25:33;18.70;99.90
47514;DHT22;33951;51.988;5.910;2022-07-01T19:27:59;18.60;99.90
47514;DHT22;33951;51.988;5.910;2022-07-01T19:30:24;18.60;99.90
47514;DHT22;33951;51.988;5.910;2022-07-01T19:32:50;18.70;99.90
47514;DHT22;33951;51.988;5.910;2022-07-01T19:35:23;18.80;99.90
47514;DHT22;33951;51.988;5.910;2022-07-01T19:37:52;18.90;99.90
47514;DHT22;33951;51.988;5.910;2022-07-01T19:40:23;18.80;99.90
47514;DHT22;33951;51.988;5.910;2022-07-01T19:42:49;18.70;99.90
47514;DHT22;33951;51.988;5.910;2022-07-01T19:45:15;18.70;99.90
47514;DHT22;33951;51.988;5.910;2022-07-01T19:47:40;18.60;99.90
47514;DHT22;33951;51.988;5.910;2022-07-01T19:50:07;18.40;99.90
47514;DHT22;33951;51.988;5.910;2022-07-01T19:52:32;18.50;99.90
47514;DHT22;33951;51.988;5.910;2022-07-01T19:54:59;18.60;99.90
47514;DHT22;33951;51.988;5.910;2022-07-01T19:57:25;18.80;99.90
47514;DHT22;33951;51.988;5.910;2022-07-01T19:59:53;18.60;99.90
47514;DHT22;33951;51.988;5.910;2022-07-01T20:02:21;18.40;99.90
47514;DHT22;33951;51.988;5.910;2022-07-01T20:04:47;18.50;99.90
47514;DHT22;33951;51.988;5.910;2022-07-01T20:07:34;18.40;99.90
47514;DHT22;33951;51.988;5.910;2022-07-01T20:10:01;18.30;99.90
47514;DHT22;33951;51.988;5.910;2022-07-01T20:15:18;18.50;99.90
47514;DHT22;33951;51.988;5.910;2022-07-01T20:17:51;18.60;99.90
47514;DHT22;33951;51.988;5.910;2022-07-01T20:20:34;18.70;99.90
47514;DHT22;33951;51.988;5.910;2022-07-01T20:23:08;18.70;99.90
47514;DHT22;33951;51.988;5.910;2022-07-01T20:25:40;18.70;99.90
47514;DHT22;33951;51.988;5.910;2022-07-01T20:28:06;18.50;99.90
47514;DHT22;33951;51.988;5.910;2022-07-01T20:30:32;18.50;99.90
47514;DHT22;33951;51.988;5.910;2022-07-01T20:33:03;18.50;99.90
47514;DHT22;33951;51.988;5.910;2022-07-01T20:35:50;18.40;99.90
47514;DHT22;33951;51.988;5.910;2022-07-01T20:38:19;18.30;99.90
47514;DHT22;33951;51.988;5.910;2022-07-01T20:40:53;18.30;99.90
47514;DHT22;33951;51.988;5.910;2022-07-01T20:43:35;18.40;99.90
47514;DHT22;33951;51.988;5.910;2022-07-01T20:46:01;18.30;99.90
47514;DHT22;33951;51.988;5.910;2022-07-01T20:48:32;18.30;99.90
47514;DHT22;33951;51.988;5.910;2022-07-01T20:51:02;18.20;99.90
47514;DHT22;33951;51.988;5.910;2022-07-01T20:53:31;18.10;99.90
47514;DHT22;33951;51.988;5.910;2022-07-01T20:55:58;18.20;99.90
47514;DHT22;33951;51.988;5.910;2022-07-01T20:58:29;18.10;99.90
47514;DHT22;33951;51.988;5.910;2022-07-01T21:01:07;18.10;99.90
47514;DHT22;33951;51.988;5.910;2022-07-01T21:03:45;18.10;99.90
47514;DHT22;33951;51.988;5.910;2022-07-01T21:06:21;17.90;99.90
47514;DHT22;33951;51.988;5.910;2022-07-01T21:08:57;17.90;99.90
47514;DHT22;33951;51.988;5.910;2022-07-01T21:11:28;17.90;99.90
47514;DHT22;33951;51.988;5.910;2022-07-01T21:13:56;17.80;99.90
47514;DHT22;33951;51.988;5.910;2022-07-01T21:16:31;17.80;99.90
47514;DHT22;33951;51.988;5.910;2022-07-01T21:19:05;17.70;99.90
47514;DHT22;33951;51.988;5.910;2022-07-01T21:21:39;17.60;99.90
47514;DHT22;33951;51.988;5.910;2022-07-01T21:24:13;17.60;99.90
47514;DHT22;33951;51.988;5.910;2022-07-01T21:26:59;17.70;99.90
47514;DHT22;33951;51.988;5.910;2022-07-01T21:29:43;17.60;99.90
47514;DHT22;33951;51.988;5.910;2022-07-01T21:32:20;17.50;99.90
47514;DHT22;33951;51.988;5.910;2022-07-01T21:34:49;17.50;99.90
47514;DHT22;33951;51.988;5.910;2022-07-01T21:37:21;17.40;99.90
47514;DHT22;33951;51.988;5.910;2022-07-01T21:40:10;17.20;99.90
47514;DHT22;33951;51.988;5.910;2022-07-01T21:42:53;17.20;99.90
47514;DHT22;33951;51.988;5.910;2022-07-01T21:45:22;17.30;99.90
47514;DHT22;33951;51.988;5.910;2022-07-01T21:47:49;17.20;99.90
47514;DHT22;33951;51.988;5.910;2022-07-01T21:50:18;17.30;99.90
47514;DHT22;33951;51.988;5.910;2022-07-01T21:52:53;17.20;99.90
47514;DHT22;33951;51.988;5.910;2022-07-01T21:55:30;17.20;99.90
47514;DHT22;33951;51.988;5.910;2022-07-01T21:58:00;17.20;99.90
47514;DHT22;33951;51.988;5.910;2022-07-01T22:00:34;17.10;99.90
47514;DHT22;33951;51.988;5.910;2022-07-01T22:03:02;17.10;99.90
47514;DHT22;33951;51.988;5.910;2022-07-01T22:05:31;17.10;99.90
47514;DHT22;33951;51.988;5.910;2022-07-01T22:08:15;17.00;99.90
47514;DHT22;33951;51.988;5.910;2022-07-01T22:10:47;17.00;99.90
47514;DHT22;33951;51.988;5.910;2022-07-01T22:13:17;16.90;99.90
47514;DHT22;33951;51.988;5.910;2022-07-01T22:15:47;16.90;99.90
47514;DHT22;33951;51.988;5.910;2022-07-01T22:18:21;16.90;99.90
47514;DHT22;33951;51.988;5.910;2022-07-01T22:20:49;16.80;99.90
47514;DHT22;33951;51.988;5.910;2022-07-01T22:23:28;16.80;99.90
47514;DHT22;33951;51.988;5.910;2022-07-01T22:25:54;16.90;99.90
47514;DHT22;33951;51.988;5.910;2022-07-01T22:28:24;16.80;99.90
47514;DHT22;33951;51.988;5.910;2022-07-01T22:30:50;16.90;99.90
47514;DHT22;33951;51.988;5.910;2022-07-01T22:33:23;16.80;99.90
47514;DHT22;33951;51.988;5.910;2022-07-01T22:35:53;16.80;99.90
47514;DHT22;33951;51.988;5.910;2022-07-01T22:38:25;16.70;99.90
47514;DHT22;33951;51.988;5.910;2022-07-01T22:40:55;16.60;99.90
47514;DHT22;33951;51.988;5.910;2022-07-01T22:43:22;16.60;99.90
47514;DHT22;33951;51.988;5.910;2022-07-01T22:45:58;16.70;99.90
47514;DHT22;33951;51.988;5.910;2022-07-01T22:51:20;16.50;99.90
47514;DHT22;33951;51.988;5.910;2022-07-01T22:53:49;16.60;99.90
47514;DHT22;33951;51.988;5.910;2022-07-01T22:56:39;16.60;99.90
47514;DHT22;33951;51.988;5.910;2022-07-01T22:59:13;16.50;99.90
47514;DHT22;33951;51.988;5.910;2022-07-01T23:01:42;16.50;99.90
47514;DHT22;33951;51.988;5.910;2022-07-01T23:04:16;16.50;99.90
47514;DHT22;33951;51.988;5.910;2022-07-01T23:06:59;16.50;99.90
47514;DHT22;33951;51.988;5.910;2022-07-01T23:10:01;16.30;99.90
47514;DHT22;33951;51.988;5.910;2022-07-01T23:15:05;16.30;99.90
47514;DHT22;33951;51.988;5.910;2022-07-01T23:17:52;16.40;99.90
47514;DHT22;33951;51.988;5.910;2022-07-01T23:20:22;16.30;99.90
47514;DHT22;33951;51.988;5.910;2022-07-01T23:22:53;16.20;99.90
47514;DHT22;33951;51.988;5.910;2022-07-01T23:25:26;16.30;99.90
47514;DHT22;33951;51.988;5.910;2022-07-01T23:27:53;16.30;99.90
47514;DHT22;33951;51.988;5.910;2022-07-01T23:30:23;16.20;99.90
47514;DHT22;33951;51.988;5.910;2022-07-01T23:32:50;16.10;99.90
47514;DHT22;33951;51.988;5.910;2022-07-01T23:35:19;16.20;99.90
47514;DHT22;33951;51.988;5.910;2022-07-01T23:37:53;16.10;99.90
47514;DHT22;33951;51.988;5.910;2022-07-01T23:40:19;16.10;99.90
47514;DHT22;33951;51.988;5.910;2022-07-01T23:42:48;16.10;99.90
47514;DHT22;33951;51.988;5.910;2022-07-01T23:45:18;16.00;99.90
47514;DHT22;33951;51.988;5.910;2022-07-01T23:47:53;16.00;99.90
47514;DHT22;33951;51.988;5.910;2022-07-01T23:50:26;16.00;99.90
47514;DHT22;33951;51.988;5.910;2022-07-01T23:52:51;16.00;99.90
47514;DHT22;33951;51.988;5.910;2022-07-01T23:55:17;15.90;99.90
47514;DHT22;33951;51.988;5.910;2022-07-01T23:57:43;15.90;99.90
